createdAt,value
2022-09-13T00:01:01.927Z,2.40
2022-09-13T00:03:30.384Z,2.30
2022-09-13T00:05:56.945Z,2.20
2022-09-13T00:08:24.177Z,2.20
2022-09-13T00:10:50.726Z,2.70
2022-09-13T00:13:17.897Z,2.27
2022-09-13T00:15:50.042Z,2.10
2022-09-13T00:18:18.487Z,2.00
2022-09-13T00:20:45.757Z,2.30
2022-09-13T00:23:12.655Z,2.10
2022-09-13T00:25:39.819Z,2.10
2022-09-13T00:28:06.499Z,2.10
2022-09-13T00:30:34.349Z,2.53
2022-09-13T00:33:04.384Z,2.40
2022-09-13T00:35:31.732Z,2.43
2022-09-13T00:37:59.979Z,2.30
2022-09-13T00:40:26.587Z,2.20
2022-09-13T00:42:55.966Z,2.23
2022-09-13T00:45:23.009Z,2.27
2022-09-13T00:47:54.674Z,2.60
2022-09-13T00:50:31.518Z,2.73
2022-09-13T00:53:08.529Z,2.80
2022-09-13T00:55:50.494Z,3.53
2022-09-13T00:58:29.007Z,3.50
2022-09-13T01:00:59.817Z,3.50
2022-09-13T01:03:30.899Z,3.50
2022-09-13T01:06:03.333Z,3.47
2022-09-13T01:08:32.173Z,3.50
2022-09-13T01:11:01.235Z,3.23
2022-09-13T01:13:32.086Z,3.17
2022-09-13T01:15:59.381Z,3.70
2022-09-13T01:18:26.350Z,2.53
2022-09-13T01:21:23.294Z,2.93
2022-09-13T01:24:14.811Z,2.40
2022-09-13T01:26:49.027Z,2.37
2022-09-13T01:29:52.725Z,2.20
2022-09-13T01:32:50.711Z,2.90
2022-09-13T01:35:24.334Z,2.40
2022-09-13T01:38:03.024Z,2.57
2022-09-13T01:41:04.901Z,2.70
2022-09-13T01:43:46.739Z,2.78
2022-09-13T01:46:39.012Z,2.47
2022-09-13T01:49:23.282Z,2.60
2022-09-13T01:51:55.009Z,2.57
2022-09-13T01:54:36.240Z,3.10
2022-09-13T01:57:28.267Z,2.90
2022-09-13T02:00:01.150Z,2.93
2022-09-13T02:02:36.715Z,3.43
2022-09-13T02:05:09.794Z,3.10
2022-09-13T02:07:41.437Z,3.13
2022-09-13T02:10:37.872Z,3.33
2022-09-13T02:13:06.903Z,3.40
2022-09-13T02:15:46.093Z,3.30
2022-09-13T02:18:18.449Z,3.70
2022-09-13T02:20:49.102Z,3.50
2022-09-13T02:23:23.210Z,3.40
2022-09-13T02:25:52.499Z,3.30
2022-09-13T02:28:27.272Z,3.57
2022-09-13T02:30:58.040Z,3.53
2022-09-13T02:33:36.047Z,4.03
2022-09-13T02:36:09.569Z,4.00
2022-09-13T02:38:55.921Z,3.67
2022-09-13T02:41:35.555Z,3.40
2022-09-13T02:44:11.817Z,3.80
2022-09-13T02:47:12.021Z,3.63
2022-09-13T02:50:10.512Z,3.60
2022-09-13T02:53:15.053Z,3.90
2022-09-13T02:55:56.620Z,3.77
2022-09-13T02:58:44.776Z,3.92
2022-09-13T03:01:11.732Z,3.63
2022-09-13T03:03:38.478Z,3.83
2022-09-13T03:06:05.786Z,4.37
2022-09-13T03:08:33.517Z,4.10
2022-09-13T03:11:18.685Z,4.07
2022-09-13T03:13:54.065Z,4.27
2022-09-13T03:16:29.516Z,4.17
2022-09-13T03:19:11.399Z,4.43
2022-09-13T03:21:43.918Z,4.00
2022-09-13T03:24:24.238Z,4.20
2022-09-13T03:27:35.062Z,4.70
2022-09-13T03:30:10.132Z,4.23
2022-09-13T03:32:37.982Z,4.37
2022-09-13T03:35:20.179Z,3.87
2022-09-13T03:38:21.396Z,3.87
2022-09-13T03:41:10.662Z,3.70
2022-09-13T03:43:43.980Z,3.50
2022-09-13T03:46:34.888Z,3.57
2022-09-13T03:49:06.557Z,3.17
2022-09-13T03:51:33.316Z,2.90
2022-09-13T03:54:04.383Z,3.40
2022-09-13T03:56:31.157Z,3.60
2022-09-13T03:58:57.701Z,4.07
2022-09-13T04:01:25.686Z,3.70
2022-09-13T04:03:56.640Z,3.67
2022-09-13T04:06:23.654Z,3.53
2022-09-13T04:08:50.492Z,4.07
2022-09-13T04:11:17.096Z,3.20
2022-09-13T04:13:43.697Z,3.90
2022-09-13T04:16:10.311Z,3.90
2022-09-13T04:18:36.902Z,3.90
2022-09-13T04:21:04.688Z,3.80
2022-09-13T04:23:31.766Z,3.77
2022-09-13T04:26:03.376Z,4.13
2022-09-13T04:28:30.840Z,4.30
2022-09-13T04:30:59.042Z,3.93
2022-09-13T04:33:25.852Z,3.90
2022-09-13T04:36:01.674Z,4.10
2022-09-13T04:38:31.871Z,4.30
2022-09-13T04:40:58.708Z,3.80
2022-09-13T04:43:25.579Z,3.87
2022-09-13T04:45:52.584Z,4.40
2022-09-13T04:48:19.508Z,4.00
2022-09-13T04:50:46.939Z,4.27
2022-09-13T04:53:13.654Z,4.03
2022-09-13T04:55:40.270Z,4.03
2022-09-13T04:58:06.853Z,3.90
2022-09-13T05:00:33.900Z,4.10
2022-09-13T05:03:00.691Z,3.97
2022-09-13T05:05:31.025Z,3.90
2022-09-13T05:07:57.590Z,4.33
2022-09-13T05:10:24.371Z,4.20
2022-09-13T05:12:51.949Z,4.20
2022-09-13T05:15:18.475Z,4.30
2022-09-13T05:17:45.106Z,4.17
2022-09-13T05:20:11.698Z,4.33
2022-09-13T05:22:38.260Z,4.53
2022-09-13T05:25:05.427Z,3.90
2022-09-13T05:27:31.991Z,4.57
2022-09-13T05:29:58.514Z,5.27
2022-09-13T05:32:25.086Z,4.57
2022-09-13T05:34:51.599Z,4.83
2022-09-13T05:37:18.590Z,4.90
2022-09-13T05:40:07.755Z,4.67
2022-09-13T05:42:31.618Z,4.93
2022-09-13T05:44:58.135Z,4.30
2022-09-13T05:47:24.677Z,4.63
2022-09-13T05:50:09.376Z,4.90
2022-09-13T05:52:37.111Z,4.17
2022-09-13T05:55:03.959Z,5.13
2022-09-13T05:57:30.545Z,4.63
2022-09-13T05:59:57.069Z,4.77
2022-09-13T06:02:23.669Z,4.80
2022-09-13T06:04:50.771Z,4.57
2022-09-13T06:07:17.706Z,4.47
2022-09-13T06:09:45.212Z,4.70
2022-09-13T06:12:11.742Z,4.37
2022-09-13T06:14:38.293Z,4.33
2022-09-13T06:17:05.209Z,3.77
2022-09-13T06:19:31.721Z,4.30
2022-09-13T06:21:58.248Z,3.80
2022-09-13T06:24:24.773Z,4.60
2022-09-13T06:26:51.470Z,4.50
2022-09-13T06:29:18.098Z,4.00
2022-09-13T06:31:45.335Z,3.90
2022-09-13T06:34:17.342Z,4.77
2022-09-13T06:36:43.884Z,4.80
2022-09-13T06:39:10.486Z,4.43
2022-09-13T06:41:37.779Z,4.43
2022-09-13T06:44:04.753Z,5.10
2022-09-13T06:46:33.835Z,4.43
2022-09-13T06:49:03.540Z,4.00
2022-09-13T06:51:30.949Z,4.30
2022-09-13T06:53:57.945Z,4.40
2022-09-13T06:56:25.775Z,4.40
2022-09-13T06:58:56.175Z,4.07
2022-09-13T07:01:29.677Z,4.77
2022-09-13T07:04:08.482Z,4.43
2022-09-13T07:06:40.566Z,4.13
2022-09-13T07:09:10.641Z,4.20
2022-09-13T07:11:39.704Z,3.93
2022-09-13T07:14:07.044Z,3.90
2022-09-13T07:16:36.581Z,3.78
2022-09-13T07:19:06.322Z,3.60
2022-09-13T07:21:34.517Z,3.40
2022-09-13T07:24:02.093Z,3.63
2022-09-13T07:26:28.682Z,3.40
2022-09-13T07:28:57.788Z,3.90
2022-09-13T07:31:27.022Z,3.93
2022-09-13T07:33:55.968Z,3.30
2022-09-13T07:36:23.909Z,3.20
2022-09-13T07:38:50.961Z,3.50
2022-09-13T07:41:20.257Z,3.40
2022-09-13T07:43:47.273Z,3.60
2022-09-13T07:46:16.400Z,3.30
2022-09-13T07:48:44.914Z,3.50
2022-09-13T07:51:22.132Z,3.27
2022-09-13T07:53:52.622Z,3.20
2022-09-13T07:56:28.683Z,3.50
2022-09-13T07:58:55.693Z,3.50
2022-09-13T08:01:24.737Z,3.17
2022-09-13T08:03:54.252Z,3.17
2022-09-13T08:06:21.880Z,3.20
2022-09-13T08:08:48.568Z,3.07
2022-09-13T08:11:39.737Z,3.37
2022-09-13T08:14:07.897Z,3.03
2022-09-13T08:16:34.517Z,3.80
2022-09-13T08:19:03.338Z,3.33
2022-09-13T08:21:36.543Z,3.03
2022-09-13T08:24:04.093Z,3.13
2022-09-13T08:26:32.465Z,3.10
2022-09-13T08:29:01.470Z,3.13
2022-09-13T08:31:28.723Z,3.58
2022-09-13T08:33:56.040Z,3.33
2022-09-13T08:36:26.532Z,3.20
2022-09-13T08:38:59.459Z,3.33
2022-09-13T08:41:47.892Z,2.80
2022-09-13T08:44:26.800Z,3.37
2022-09-13T08:47:03.369Z,3.17
2022-09-13T08:49:39.961Z,2.73
2022-09-13T08:52:32.916Z,2.90
2022-09-13T08:55:08.349Z,3.20
2022-09-13T08:57:45.119Z,3.13
2022-09-13T09:00:22.989Z,3.20
2022-09-13T09:03:19.072Z,3.10
2022-09-13T09:05:48.972Z,3.73
2022-09-13T09:08:34.250Z,3.40
2022-09-13T09:11:14.926Z,3.25
2022-09-13T09:14:01.563Z,2.50
2022-09-13T09:16:41.267Z,3.17
2022-09-13T09:19:25.189Z,3.10
2022-09-13T09:21:52.111Z,3.00
2022-09-13T09:24:22.977Z,3.53
2022-09-13T09:26:50.160Z,3.10
2022-09-13T09:29:26.847Z,3.60
2022-09-13T09:32:17.057Z,3.08
2022-09-13T09:35:20.050Z,3.00
2022-09-13T09:38:05.977Z,3.23
2022-09-13T09:40:36.273Z,3.30
2022-09-13T09:43:15.942Z,2.65
2022-09-13T09:45:46.234Z,3.20
2022-09-13T09:48:19.047Z,2.65
2022-09-13T09:50:50.007Z,2.88
2022-09-13T09:53:28.980Z,2.90
2022-09-13T09:56:02.619Z,2.90
2022-09-13T09:58:41.593Z,3.37
2022-09-13T10:01:34.765Z,2.97
2022-09-13T10:04:19.501Z,2.72
2022-09-13T10:06:46.966Z,2.67
2022-09-13T10:09:13.433Z,3.05
2022-09-13T10:11:41.787Z,2.83
2022-09-13T10:14:38.005Z,2.42
2022-09-13T10:17:25.716Z,2.35
2022-09-13T10:19:58.664Z,2.50
2022-09-13T10:22:29.873Z,2.77
2022-09-13T10:25:17.639Z,2.63
2022-09-13T10:27:51.446Z,2.00
2022-09-13T10:30:44.109Z,2.10
2022-09-13T10:33:25.791Z,2.78
2022-09-13T10:35:55.619Z,2.08
2022-09-13T10:38:46.087Z,2.38
2022-09-13T10:41:54.967Z,2.08
2022-09-13T10:44:57.554Z,2.00
2022-09-13T10:47:42.383Z,1.92
2022-09-13T10:50:23.885Z,1.70
2022-09-13T10:53:07.634Z,1.90
2022-09-13T10:55:44.113Z,1.80
2022-09-13T10:58:26.854Z,1.77
2022-09-13T11:01:17.256Z,1.80
2022-09-13T11:03:59.668Z,1.90
2022-09-13T11:06:39.672Z,2.10
2022-09-13T11:09:14.829Z,1.90
2022-09-13T11:12:02.427Z,2.15
2022-09-13T11:15:01.360Z,1.58
2022-09-13T11:17:54.219Z,1.65
2022-09-13T11:20:45.337Z,1.90
2022-09-13T11:23:18.471Z,1.92
2022-09-13T11:25:59.327Z,1.88
2022-09-13T11:28:33.115Z,2.00
2022-09-13T11:31:39.175Z,1.60
2022-09-13T11:34:24.554Z,1.88
2022-09-13T11:37:10.169Z,1.90
2022-09-13T11:39:41.825Z,1.80
2022-09-13T11:42:14.717Z,1.52
2022-09-13T11:45:19.392Z,1.88
2022-09-13T11:48:20.687Z,1.70
2022-09-13T11:51:16.206Z,1.40
2022-09-13T11:53:56.538Z,1.83
2022-09-13T11:56:47.971Z,1.92
2022-09-13T11:59:34.534Z,1.88
2022-09-13T12:02:24.831Z,1.80
2022-09-13T12:05:21.110Z,1.60
2022-09-13T12:08:06.072Z,1.60
2022-09-13T12:10:42.311Z,1.70
2022-09-13T12:13:16.851Z,1.92
2022-09-13T12:15:46.483Z,1.80
2022-09-13T12:18:32.557Z,1.70
2022-09-13T12:21:10.151Z,1.63
2022-09-13T12:23:44.030Z,1.50
2022-09-13T12:26:21.310Z,1.77
2022-09-13T12:29:18.301Z,1.70
2022-09-13T12:31:45.019Z,1.60
2022-09-13T12:34:24.610Z,1.75
2022-09-13T12:37:24.289Z,1.88
2022-09-13T12:40:15.633Z,1.60
2022-09-13T12:43:11.431Z,1.60
2022-09-13T12:46:06.633Z,1.58
2022-09-13T12:49:00.024Z,1.63
2022-09-13T12:51:52.944Z,1.70
2022-09-13T12:54:31.440Z,1.92
2022-09-13T12:57:18.104Z,1.55
2022-09-13T13:00:16.276Z,1.50
2022-09-13T13:03:01.787Z,1.65
2022-09-13T13:05:32.914Z,1.52
2022-09-13T13:08:06.024Z,1.73
2022-09-13T13:10:35.673Z,1.60
2022-09-13T13:13:33.362Z,1.63
2022-09-13T13:16:04.592Z,1.55
2022-09-13T13:18:44.384Z,1.70
2022-09-13T13:21:47.918Z,1.65
2022-09-13T13:24:17.491Z,1.67
2022-09-13T13:26:50.290Z,1.65
2022-09-13T13:29:29.911Z,1.50
2022-09-13T13:32:01.144Z,1.75
2022-09-13T13:34:50.035Z,1.60
2022-09-13T13:37:19.341Z,1.70
2022-09-13T13:40:10.052Z,1.85
2022-09-13T13:42:39.465Z,1.90
2022-09-13T13:45:22.063Z,1.48
2022-09-13T13:47:54.111Z,1.67
2022-09-13T13:50:20.986Z,1.60
2022-09-13T13:52:47.711Z,1.80
2022-09-13T13:55:28.650Z,1.45
2022-09-13T13:58:10.337Z,1.33
2022-09-13T14:00:47.664Z,1.80
2022-09-13T14:03:32.168Z,1.70
2022-09-13T14:06:07.189Z,1.70
2022-09-13T14:11:41.449Z,1.60
2022-09-13T14:14:36.670Z,1.58
2022-09-13T14:17:29.428Z,1.70
2022-09-13T14:20:02.911Z,1.23
2022-09-13T14:22:29.717Z,1.73
2022-09-13T14:24:58.560Z,1.65
2022-09-13T14:27:35.607Z,1.30
2022-09-13T14:30:22.362Z,1.70
2022-09-13T14:32:52.721Z,1.48
2022-09-13T14:35:39.185Z,1.48
2022-09-13T14:38:13.466Z,1.50
2022-09-13T14:40:40.403Z,1.60
2022-09-13T14:43:21.594Z,1.40
2022-09-13T14:45:53.338Z,1.45
2022-09-13T14:48:36.444Z,1.50
2022-09-13T14:51:13.285Z,1.50
2022-09-13T14:53:42.504Z,1.45
2022-09-13T14:56:17.670Z,1.70
2022-09-13T14:58:46.212Z,1.45
2022-09-13T15:01:41.029Z,1.40
2022-09-13T15:04:07.767Z,1.45
2022-09-13T15:06:40.307Z,1.40
2022-09-13T15:09:10.071Z,1.70
2022-09-13T15:11:55.759Z,1.75
2022-09-13T15:14:35.038Z,2.65
2022-09-13T15:17:14.185Z,1.88
2022-09-13T15:19:50.922Z,1.47
2022-09-13T15:22:25.312Z,1.45
2022-09-13T15:24:57.204Z,1.50
2022-09-13T15:27:24.139Z,1.58
2022-09-13T15:30:02.802Z,1.50
2022-09-13T15:32:31.648Z,1.65
2022-09-13T15:35:01.509Z,1.20
2022-09-13T15:37:33.217Z,1.67
2022-09-13T15:40:14.251Z,1.40
2022-09-13T15:42:41.287Z,1.48
2022-09-13T15:45:08.415Z,1.20
2022-09-13T15:47:34.985Z,1.30
2022-09-13T15:50:01.630Z,1.30
2022-09-13T15:52:28.271Z,1.25
2022-09-13T15:54:54.785Z,1.35
2022-09-13T15:57:24.225Z,1.10
2022-09-13T15:59:51.465Z,1.10
2022-09-13T16:02:25.365Z,1.35
2022-09-13T16:04:52.577Z,1.30
2022-09-13T16:07:19.602Z,1.58
2022-09-13T16:09:46.834Z,1.55
2022-09-13T16:12:13.710Z,1.40
2022-09-13T16:14:40.607Z,1.50
2022-09-13T16:17:12.094Z,1.60
2022-09-13T16:19:38.622Z,1.58
2022-09-13T16:22:07.746Z,1.50
2022-09-13T16:24:37.805Z,1.83
2022-09-13T16:27:05.135Z,1.30
2022-09-13T16:29:31.963Z,1.70
2022-09-13T16:31:59.820Z,1.60
2022-09-13T16:34:26.607Z,1.63
2022-09-13T16:36:53.194Z,1.38
2022-09-13T16:39:20.061Z,1.50
2022-09-13T16:41:46.631Z,1.50
2022-09-13T16:44:14.363Z,1.40
2022-09-13T16:46:40.974Z,1.63
2022-09-13T16:49:07.592Z,1.92
2022-09-13T16:51:34.281Z,1.60
2022-09-13T16:54:00.950Z,1.67
2022-09-13T16:56:27.577Z,1.50
2022-09-13T16:58:54.488Z,1.58
2022-09-13T17:01:24.731Z,1.85
2022-09-13T17:03:54.800Z,1.50
2022-09-13T17:06:23.703Z,2.00
2022-09-13T17:08:56.500Z,1.95
2022-09-13T17:11:26.355Z,1.55
2022-09-13T17:13:53.743Z,1.53
2022-09-13T17:16:30.686Z,2.00
2022-09-13T17:18:59.921Z,2.33
2022-09-13T17:21:27.796Z,1.90
2022-09-13T17:23:54.624Z,1.80
2022-09-13T17:26:21.481Z,1.67
2022-09-13T17:28:48.691Z,2.23
2022-09-13T17:31:15.701Z,1.57
2022-09-13T17:33:42.378Z,2.03
2022-09-13T17:36:10.788Z,1.80
2022-09-13T17:38:38.118Z,2.00
2022-09-13T17:41:10.237Z,2.33
2022-09-13T17:43:37.610Z,1.80
2022-09-13T17:46:06.258Z,2.00
2022-09-13T17:48:33.530Z,1.85
2022-09-13T17:51:02.433Z,1.90
2022-09-13T17:53:29.461Z,2.07
2022-09-13T17:55:55.996Z,2.20
2022-09-13T17:58:26.892Z,2.20
2022-09-13T18:01:10.012Z,2.03
2022-09-13T18:03:38.571Z,2.17
2022-09-13T18:06:07.319Z,2.03
2022-09-13T18:08:35.526Z,2.20
2022-09-13T18:11:13.690Z,2.57
2022-09-13T18:13:42.673Z,2.20
2022-09-13T18:16:12.192Z,2.10
2022-09-13T18:18:43.818Z,2.10
2022-09-13T18:21:10.777Z,1.97
2022-09-13T18:23:37.363Z,2.10
2022-09-13T18:26:10.644Z,2.03
2022-09-13T18:28:38.099Z,1.90
2022-09-13T18:31:07.338Z,1.80
2022-09-13T18:33:33.990Z,2.00
2022-09-13T18:36:03.622Z,1.80
2022-09-13T18:38:35.785Z,1.83
2022-09-13T18:41:03.795Z,1.80
2022-09-13T18:43:31.289Z,2.00
2022-09-13T18:46:00.070Z,1.60
2022-09-13T18:48:38.238Z,1.73
2022-09-13T18:51:05.995Z,1.90
2022-09-13T18:53:35.201Z,1.80
2022-09-13T18:56:06.960Z,1.97
2022-09-13T18:58:36.553Z,1.90
2022-09-13T19:01:05.030Z,1.90
2022-09-13T19:03:32.400Z,1.70
2022-09-13T19:06:16.541Z,1.70
2022-09-13T19:08:43.864Z,1.87
2022-09-13T19:11:29.232Z,2.17
2022-09-13T19:13:57.957Z,2.90
2022-09-13T19:16:26.297Z,2.60
2022-09-13T19:18:53.045Z,2.47
2022-09-13T19:21:23.527Z,2.43
2022-09-13T19:23:59.429Z,3.00
2022-09-13T19:26:30.943Z,2.50
2022-09-13T19:29:05.838Z,2.87
2022-09-13T19:31:35.411Z,2.57
2022-09-13T19:34:02.291Z,2.63
2022-09-13T19:36:34.137Z,2.60
2022-09-13T19:39:01.290Z,2.60
2022-09-13T19:41:29.762Z,2.30
2022-09-13T19:44:00.160Z,2.30
2022-09-13T19:46:31.316Z,2.40
2022-09-13T19:48:59.216Z,2.50
2022-09-13T19:51:28.670Z,2.43
2022-09-13T19:53:57.840Z,2.20
2022-09-13T19:56:30.404Z,2.17
2022-09-13T19:58:58.254Z,2.03
2022-09-13T20:01:31.106Z,2.57
2022-09-13T20:03:59.803Z,2.77
2022-09-13T20:06:27.988Z,2.23
2022-09-13T20:08:59.142Z,2.60
2022-09-13T20:11:29.011Z,2.53
2022-09-13T20:14:00.003Z,2.60
2022-09-13T20:16:34.985Z,3.10
2022-09-13T20:19:02.315Z,2.73
2022-09-13T20:21:31.365Z,2.87
2022-09-13T20:24:04.274Z,3.10
2022-09-13T20:26:32.777Z,2.93
2022-09-13T20:29:04.875Z,3.23
2022-09-13T20:31:33.253Z,3.07
2022-09-13T20:34:01.010Z,2.93
2022-09-13T20:36:29.704Z,2.50
2022-09-13T20:39:02.374Z,2.50
2022-09-13T20:41:30.323Z,2.53
2022-09-13T20:43:58.962Z,2.57
2022-09-13T20:46:25.872Z,2.97
2022-09-13T20:48:52.439Z,2.73
2022-09-13T20:51:24.323Z,3.00
2022-09-13T20:54:00.200Z,2.77
2022-09-13T20:56:28.646Z,2.90
2022-09-13T20:58:57.993Z,2.70
2022-09-13T21:01:25.554Z,2.77
2022-09-13T21:03:54.885Z,2.57
2022-09-13T21:06:26.755Z,2.77
2022-09-13T21:08:53.989Z,2.80
2022-09-13T21:11:23.746Z,2.97
2022-09-13T21:13:52.528Z,3.07
2022-09-13T21:16:21.728Z,2.70
2022-09-13T21:18:48.796Z,3.00
2022-09-13T21:21:18.531Z,3.17
2022-09-13T21:23:45.124Z,2.90
2022-09-13T21:26:17.369Z,2.93
2022-09-13T21:28:44.511Z,2.37
2022-09-13T21:31:21.515Z,3.10
2022-09-13T21:33:52.878Z,3.00
2022-09-13T21:36:19.396Z,2.90
2022-09-13T21:38:46.109Z,3.10
2022-09-13T21:41:17.740Z,2.47
2022-09-13T21:43:44.632Z,2.63
2022-09-13T21:46:20.297Z,2.40
2022-09-13T21:48:51.711Z,2.43
2022-09-13T21:51:23.664Z,2.33
2022-09-13T21:53:57.543Z,2.70
2022-09-13T21:56:26.866Z,2.60
2022-09-13T21:58:55.611Z,2.53
2022-09-13T22:01:23.544Z,2.70
2022-09-13T22:03:51.925Z,2.57
2022-09-13T22:06:19.987Z,2.80
2022-09-13T22:08:55.181Z,2.80
2022-09-13T22:11:27.394Z,3.30
2022-09-13T22:13:55.459Z,3.10
2022-09-13T22:16:27.959Z,3.10
2022-09-13T22:19:04.261Z,3.17
2022-09-13T22:21:36.823Z,3.10
2022-09-13T22:24:05.250Z,3.30
2022-09-13T22:26:35.098Z,3.30
2022-09-13T22:29:02.142Z,3.27
2022-09-13T22:31:33.356Z,3.63
2022-09-13T22:34:01.005Z,3.43
2022-09-13T22:36:28.434Z,3.40
2022-09-13T22:38:55.260Z,2.33
2022-09-13T22:41:28.239Z,2.70
2022-09-13T22:43:55.603Z,2.77
2022-09-13T22:46:28.540Z,3.20
2022-09-13T22:48:55.661Z,3.37
2022-09-13T22:51:23.193Z,3.17
2022-09-13T22:53:51.149Z,2.87
2022-09-13T22:56:27.651Z,2.77
2022-09-13T22:58:55.928Z,3.10
2022-09-13T23:01:23.747Z,2.93
2022-09-13T23:03:51.466Z,3.20
2022-09-13T23:06:21.683Z,3.47
2022-09-13T23:08:49.807Z,3.70
2022-09-13T23:11:25.510Z,2.93
2022-09-13T23:13:54.350Z,3.60
2022-09-13T23:16:23.744Z,2.90
2022-09-13T23:18:51.263Z,3.10
2022-09-13T23:21:19.865Z,3.08
2022-09-13T23:23:46.570Z,3.10
2022-09-13T23:26:17.352Z,3.27
2022-09-13T23:28:45.713Z,2.77
2022-09-13T23:31:19.466Z,3.40
2022-09-13T23:33:48.545Z,3.20
2022-09-13T23:36:17.315Z,3.10
2022-09-13T23:38:49.918Z,3.40
2022-09-13T23:41:17.677Z,3.50
2022-09-13T23:43:44.868Z,3.90
2022-09-13T23:46:11.766Z,3.07
2022-09-13T23:48:38.750Z,2.60
2022-09-13T23:51:09.082Z,2.80
2022-09-13T23:53:36.989Z,3.17
2022-09-13T23:56:04.963Z,2.83
2022-09-13T23:58:32.035Z,2.90
